Terminal Aerodrome Forecast
Issued by NWS Mt. Holly, NJ

Home | Current Version | Previous Version | Text Only | Print | Product List | Glossary On
Versions: 1 2 3 4 5 6 7 8 9 10 11 12 13 14 15 16
640
FTUS41 KPHI 080520
TAFILG
TAF
KILG 080520Z 0806/0906 36012KT P6SM OVC150
      TEMPO 0811/0814 BKN020 OVC150
     FM081500 03012G20KT P6SM SCT025 OVC150
     FM090000 09008KT P6SM OVC015
     FM090400 06010KT 3SM -SN OVC009=

USA.gov is the U.S. government's official web portal to all federal, state and local government web resources and services.